sensor_id;sensor_type;location;lat;lon;timestamp;P1;durP1;ratioP1;P2;durP2;ratioP2
53939;SDS011;39850;43.324;21.916;2023-04-06T00:11:25;25.0;;;26.0;;
53939;SDS011;39850;43.324;21.916;2023-04-06T00:16:06;25.0;;;26.0;;
53939;SDS011;39850;43.324;21.916;2023-04-06T00:20:43;26.0;;;27.0;;
53939;SDS011;39850;43.324;21.916;2023-04-06T00:25:20;26.0;;;27.0;;
53939;SDS011;39850;43.324;21.916;2023-04-06T00:29:57;27.0;;;28.0;;
53939;SDS011;39850;43.324;21.916;2023-04-06T00:34:34;27.0;;;28.0;;
53939;SDS011;39850;43.324;21.916;2023-04-06T00:39:11;27.0;;;28.0;;
53939;SDS011;39850;43.324;21.916;2023-04-06T00:43:48;27.0;;;28.0;;
53939;SDS011;39850;43.324;21.916;2023-04-06T00:48:25;27.0;;;28.0;;
53939;SDS011;39850;43.324;21.916;2023-04-06T00:53:03;27.0;;;28.0;;
53939;SDS011;39850;43.324;21.916;2023-04-06T00:57:40;27.0;;;28.0;;
53939;SDS011;39850;43.324;21.916;2023-04-06T01:29:57;25.0;;;26.0;;
53939;SDS011;39850;43.324;21.916;2023-04-06T01:34:34;25.0;;;26.0;;
53939;SDS011;39850;43.324;21.916;2023-04-06T01:39:11;25.0;;;26.0;;
53939;SDS011;39850;43.324;21.916;2023-04-06T01:43:49;25.0;;;26.0;;
53939;SDS011;39850;43.324;21.916;2023-04-06T01:48:27;25.0;;;26.0;;
53939;SDS011;39850;43.324;21.916;2023-04-06T01:53:04;25.0;;;26.0;;
53939;SDS011;39850;43.324;21.916;2023-04-06T01:57:41;25.0;;;26.0;;
53939;SDS011;39850;43.324;21.916;2023-04-06T02:02:18;25.0;;;26.0;;
53939;SDS011;39850;43.324;21.916;2023-04-06T02:06:55;25.0;;;26.0;;
53939;SDS011;39850;43.324;21.916;2023-04-06T02:11:32;25.0;;;25.0;;
53939;SDS011;39850;43.324;21.916;2023-04-06T02:16:09;25.0;;;25.0;;
53939;SDS011;39850;43.324;21.916;2023-04-06T02:53:04;27.0;;;28.0;;
53939;SDS011;39850;43.324;21.916;2023-04-06T02:57:41;27.0;;;28.0;;
53939;SDS011;39850;43.324;21.916;2023-04-06T03:02:18;28.0;;;28.0;;
53939;SDS011;39850;43.324;21.916;2023-04-06T03:06:55;28.0;;;28.0;;
53939;SDS011;39850;43.324;21.916;2023-04-06T03:11:32;28.0;;;29.0;;
53939;SDS011;39850;43.324;21.916;2023-04-06T03:16:09;28.0;;;29.0;;
53939;SDS011;39850;43.324;21.916;2023-04-06T03:20:46;28.0;;;30.0;;
53939;SDS011;39850;43.324;21.916;2023-04-06T03:25:23;28.0;;;30.0;;
53939;SDS011;39850;43.324;21.916;2023-04-06T03:30:01;29.0;;;30.0;;
53939;SDS011;39850;43.324;21.916;2023-04-06T03:34:39;29.0;;;30.0;;
53939;SDS011;39850;43.324;21.916;2023-04-06T03:39:16;29.0;;;30.0;;
53939;SDS011;39850;43.324;21.916;2023-04-06T04:11:32;28.0;;;29.0;;
53939;SDS011;39850;43.324;21.916;2023-04-06T04:16:08;28.0;;;29.0;;
53939;SDS011;39850;43.324;21.916;2023-04-06T04:20:46;27.0;;;28.0;;
53939;SDS011;39850;43.324;21.916;2023-04-06T04:25:24;27.0;;;28.0;;
53939;SDS011;39850;43.324;21.916;2023-04-06T04:30:01;27.0;;;28.0;;
53939;SDS011;39850;43.324;21.916;2023-04-06T04:34:38;26.0;;;28.0;;
53939;SDS011;39850;43.324;21.916;2023-04-06T04:39:14;26.0;;;28.0;;
53939;SDS011;39850;43.324;21.916;2023-04-06T04:43:51;26.0;;;27.0;;
53939;SDS011;39850;43.324;21.916;2023-04-06T04:48:28;26.0;;;27.0;;
53939;SDS011;39850;43.324;21.916;2023-04-06T04:53:04;26.0;;;26.0;;
53939;SDS011;39850;43.324;21.916;2023-04-06T04:57:41;26.0;;;26.0;;
53939;SDS011;39850;43.324;21.916;2023-04-06T05:34:52;35.0;;;34.0;;
53939;SDS011;39850;43.324;21.916;2023-04-06T05:39:28;35.0;;;34.0;;
53939;SDS011;39850;43.324;21.916;2023-04-06T05:44:05;36.0;;;34.0;;
53939;SDS011;39850;43.324;21.916;2023-04-06T05:48:42;36.0;;;34.0;;
53939;SDS011;39850;43.324;21.916;2023-04-06T05:53:19;35.0;;;34.0;;
53939;SDS011;39850;43.324;21.916;2023-04-06T05:57:56;35.0;;;34.0;;
53939;SDS011;39850;43.324;21.916;2023-04-06T06:02:33;34.0;;;32.0;;
53939;SDS011;39850;43.324;21.916;2023-04-06T06:07:10;34.0;;;32.0;;
53939;SDS011;39850;43.324;21.916;2023-04-06T06:11:48;30.0;;;29.0;;
53939;SDS011;39850;43.324;21.916;2023-04-06T06:16:25;30.0;;;29.0;;
53939;SDS011;39850;43.324;21.916;2023-04-06T06:53:20;28.0;;;25.0;;
53939;SDS011;39850;43.324;21.916;2023-04-06T06:57:57;28.0;;;25.0;;
53939;SDS011;39850;43.324;21.916;2023-04-06T07:02:35;28.0;;;25.0;;
53939;SDS011;39850;43.324;21.916;2023-04-06T07:07:12;28.0;;;25.0;;
53939;SDS011;39850;43.324;21.916;2023-04-06T07:11:49;28.0;;;25.0;;
53939;SDS011;39850;43.324;21.916;2023-04-06T07:16:26;28.0;;;25.0;;
53939;SDS011;39850;43.324;21.916;2023-04-06T07:21:04;26.0;;;24.0;;
53939;SDS011;39850;43.324;21.916;2023-04-06T07:25:42;26.0;;;24.0;;
53939;SDS011;39850;43.324;21.916;2023-04-06T07:30:20;26.0;;;24.0;;
53939;SDS011;39850;43.324;21.916;2023-04-06T07:34:57;23.0;;;23.0;;
53939;SDS011;39850;43.324;21.916;2023-04-06T07:39:34;23.0;;;23.0;;
53939;SDS011;39850;43.324;21.916;2023-04-06T08:11:53;28.0;;;25.0;;
53939;SDS011;39850;43.324;21.916;2023-04-06T08:16:30;28.0;;;25.0;;
53939;SDS011;39850;43.324;21.916;2023-04-06T08:21:07;26.0;;;24.0;;
53939;SDS011;39850;43.324;21.916;2023-04-06T08:25:44;26.0;;;24.0;;
53939;SDS011;39850;43.324;21.916;2023-04-06T08:30:21;26.0;;;24.0;;
53939;SDS011;39850;43.324;21.916;2023-04-06T08:34:58;24.0;;;23.0;;
53939;SDS011;39850;43.324;21.916;2023-04-06T08:39:35;24.0;;;23.0;;
53939;SDS011;39850;43.324;21.916;2023-04-06T08:44:13;22.0;;;22.0;;
53939;SDS011;39850;43.324;21.916;2023-04-06T08:48:51;22.0;;;22.0;;
53939;SDS011;39850;43.324;21.916;2023-04-06T08:53:29;20.0;;;20.0;;
53939;SDS011;39850;43.324;21.916;2023-04-06T08:58:08;20.0;;;20.0;;
53939;SDS011;39850;43.324;21.916;2023-04-06T09:35:28;15.0;;;15.0;;
53939;SDS011;39850;43.324;21.916;2023-04-06T09:40:10;15.0;;;15.0;;
53939;SDS011;39850;43.324;21.916;2023-04-06T09:44:47;16.0;;;16.0;;
53939;SDS011;39850;43.324;21.916;2023-04-06T09:49:33;16.0;;;16.0;;
53939;SDS011;39850;43.324;21.916;2023-04-06T09:54:23;15.0;;;15.0;;
53939;SDS011;39850;43.324;21.916;2023-04-06T09:59:31;15.0;;;15.0;;
53939;SDS011;39850;43.324;21.916;2023-04-06T10:04:53;16.0;;;16.0;;
53939;SDS011;39850;43.324;21.916;2023-04-06T10:09:47;16.0;;;16.0;;
53939;SDS011;39850;43.324;21.916;2023-04-06T10:14:27;15.0;;;15.0;;
53939;SDS011;39850;43.324;21.916;2023-04-06T10:19:29;15.0;;;15.0;;
53939;SDS011;39850;43.324;21.916;2023-04-06T10:52:36;16.0;;;15.0;;
53939;SDS011;39850;43.324;21.916;2023-04-06T10:57:13;16.0;;;15.0;;
53939;SDS011;39850;43.324;21.916;2023-04-06T11:01:50;16.0;;;15.0;;
53939;SDS011;39850;43.324;21.916;2023-04-06T11:06:31;16.0;;;15.0;;
53939;SDS011;39850;43.324;21.916;2023-04-06T11:11:17;16.0;;;15.0;;
53939;SDS011;39850;43.324;21.916;2023-04-06T11:15:57;16.0;;;15.0;;
53939;SDS011;39850;43.324;21.916;2023-04-06T11:20:35;16.0;;;15.0;;
53939;SDS011;39850;43.324;21.916;2023-04-06T11:25:12;16.0;;;15.0;;
53939;SDS011;39850;43.324;21.916;2023-04-06T11:29:51;16.0;;;15.0;;
53939;SDS011;39850;43.324;21.916;2023-04-06T11:34:39;16.0;;;15.0;;
53939;SDS011;39850;43.324;21.916;2023-04-06T11:39:25;16.0;;;15.0;;
53939;SDS011;39850;43.324;21.916;2023-04-06T12:16:27;30.0;;;28.0;;
53939;SDS011;39850;43.324;21.916;2023-04-06T12:21:04;30.0;;;28.0;;
53939;SDS011;39850;43.324;21.916;2023-04-06T12:25:44;25.0;;;24.0;;
53939;SDS011;39850;43.324;21.916;2023-04-06T12:30:21;25.0;;;24.0;;
53939;SDS011;39850;43.324;21.916;2023-04-06T12:34:58;20.0;;;19.0;;
53939;SDS011;39850;43.324;21.916;2023-04-06T12:39:34;20.0;;;19.0;;
53939;SDS011;39850;43.324;21.916;2023-04-06T12:44:12;19.0;;;18.0;;
53939;SDS011;39850;43.324;21.916;2023-04-06T12:48:49;19.0;;;18.0;;
53939;SDS011;39850;43.324;21.916;2023-04-06T12:53:28;18.0;;;18.0;;
53939;SDS011;39850;43.324;21.916;2023-04-06T12:58:06;18.0;;;18.0;;
53939;SDS011;39850;43.324;21.916;2023-04-06T13:35:19;16.0;;;16.0;;
53939;SDS011;39850;43.324;21.916;2023-04-06T13:39:56;16.0;;;16.0;;
53939;SDS011;39850;43.324;21.916;2023-04-06T13:44:34;16.0;;;16.0;;
53939;SDS011;39850;43.324;21.916;2023-04-06T13:49:11;16.0;;;16.0;;
53939;SDS011;39850;43.324;21.916;2023-04-06T13:53:48;16.0;;;16.0;;
53939;SDS011;39850;43.324;21.916;2023-04-06T13:58:25;16.0;;;16.0;;
53939;SDS011;39850;43.324;21.916;2023-04-06T14:03:03;17.0;;;16.0;;
53939;SDS011;39850;43.324;21.916;2023-04-06T14:07:42;17.0;;;16.0;;
53939;SDS011;39850;43.324;21.916;2023-04-06T14:12:19;18.0;;;17.0;;
53939;SDS011;39850;43.324;21.916;2023-04-06T14:16:56;18.0;;;17.0;;
53939;SDS011;39850;43.324;21.916;2023-04-06T14:21:33;18.0;;;17.0;;
53939;SDS011;39850;43.324;21.916;2023-04-06T14:53:48;17.0;;;15.0;;
53939;SDS011;39850;43.324;21.916;2023-04-06T14:58:26;17.0;;;15.0;;
53939;SDS011;39850;43.324;21.916;2023-04-06T15:03:03;16.0;;;14.0;;
53939;SDS011;39850;43.324;21.916;2023-04-06T15:07:40;16.0;;;14.0;;
53939;SDS011;39850;43.324;21.916;2023-04-06T15:12:17;16.0;;;14.0;;
53939;SDS011;39850;43.324;21.916;2023-04-06T15:16:53;17.0;;;15.0;;
53939;SDS011;39850;43.324;21.916;2023-04-06T15:21:30;17.0;;;15.0;;
53939;SDS011;39850;43.324;21.916;2023-04-06T15:26:07;16.0;;;15.0;;
53939;SDS011;39850;43.324;21.916;2023-04-06T15:30:44;16.0;;;15.0;;
53939;SDS011;39850;43.324;21.916;2023-04-06T15:35:23;18.0;;;16.0;;
53939;SDS011;39850;43.324;21.916;2023-04-06T15:40:01;18.0;;;16.0;;
53939;SDS011;39850;43.324;21.916;2023-04-06T16:16:58;17.0;;;16.0;;
53939;SDS011;39850;43.324;21.916;2023-04-06T16:21:35;17.0;;;16.0;;
53939;SDS011;39850;43.324;21.916;2023-04-06T16:26:12;18.0;;;16.0;;
53939;SDS011;39850;43.324;21.916;2023-04-06T16:30:52;18.0;;;16.0;;
53939;SDS011;39850;43.324;21.916;2023-04-06T16:35:29;19.0;;;17.0;;
53939;SDS011;39850;43.324;21.916;2023-04-06T16:40:09;19.0;;;17.0;;
53939;SDS011;39850;43.324;21.916;2023-04-06T16:44:48;20.0;;;17.0;;
53939;SDS011;39850;43.324;21.916;2023-04-06T16:49:25;20.0;;;17.0;;
53939;SDS011;39850;43.324;21.916;2023-04-06T16:54:03;20.0;;;17.0;;
53939;SDS011;39850;43.324;21.916;2023-04-06T16:58:40;20.0;;;17.0;;
53939;SDS011;39850;43.324;21.916;2023-04-06T17:35:35;33.0;;;30.0;;
53939;SDS011;39850;43.324;21.916;2023-04-06T17:40:12;33.0;;;30.0;;
53939;SDS011;39850;43.324;21.916;2023-04-06T17:44:51;30.0;;;27.0;;
53939;SDS011;39850;43.324;21.916;2023-04-06T17:49:28;30.0;;;27.0;;
53939;SDS011;39850;43.324;21.916;2023-04-06T17:54:04;26.0;;;24.0;;
53939;SDS011;39850;43.324;21.916;2023-04-06T17:58:41;26.0;;;24.0;;
53939;SDS011;39850;43.324;21.916;2023-04-06T18:03:18;25.0;;;23.0;;
53939;SDS011;39850;43.324;21.916;2023-04-06T18:07:56;25.0;;;23.0;;
53939;SDS011;39850;43.324;21.916;2023-04-06T18:12:33;25.0;;;23.0;;
53939;SDS011;39850;43.324;21.916;2023-04-06T18:17:10;24.0;;;22.0;;
53939;SDS011;39850;43.324;21.916;2023-04-06T18:21:47;24.0;;;22.0;;
53939;SDS011;39850;43.324;21.916;2023-04-06T18:54:28;155.0;;;111.0;;
53939;SDS011;39850;43.324;21.916;2023-04-06T18:59:05;155.0;;;111.0;;
53939;SDS011;39850;43.324;21.916;2023-04-06T19:03:42;137.0;;;98.0;;
53939;SDS011;39850;43.324;21.916;2023-04-06T19:08:18;137.0;;;98.0;;
53939;SDS011;39850;43.324;21.916;2023-04-06T19:12:56;137.0;;;98.0;;
53939;SDS011;39850;43.324;21.916;2023-04-06T19:17:33;119.0;;;86.0;;
53939;SDS011;39850;43.324;21.916;2023-04-06T19:22:11;119.0;;;86.0;;
53939;SDS011;39850;43.324;21.916;2023-04-06T19:26:48;104.0;;;76.0;;
53939;SDS011;39850;43.324;21.916;2023-04-06T19:31:25;104.0;;;76.0;;
53939;SDS011;39850;43.324;21.916;2023-04-06T19:36:05;90.0;;;67.0;;
53939;SDS011;39850;43.324;21.916;2023-04-06T19:40:44;90.0;;;67.0;;
53939;SDS011;39850;43.324;21.916;2023-04-06T20:17:38;160.0;;;122.0;;
53939;SDS011;39850;43.324;21.916;2023-04-06T20:22:15;160.0;;;122.0;;
53939;SDS011;39850;43.324;21.916;2023-04-06T20:26:51;122.0;;;94.0;;
53939;SDS011;39850;43.324;21.916;2023-04-06T20:31:29;122.0;;;94.0;;
53939;SDS011;39850;43.324;21.916;2023-04-06T20:36:07;84.0;;;67.0;;
53939;SDS011;39850;43.324;21.916;2023-04-06T20:40:45;84.0;;;67.0;;
53939;SDS011;39850;43.324;21.916;2023-04-06T20:45:23;70.0;;;58.0;;
53939;SDS011;39850;43.324;21.916;2023-04-06T20:50:01;70.0;;;58.0;;
53939;SDS011;39850;43.324;21.916;2023-04-06T20:54:38;57.0;;;48.0;;
53939;SDS011;39850;43.324;21.916;2023-04-06T20:59:15;57.0;;;48.0;;
53939;SDS011;39850;43.324;21.916;2023-04-06T21:36:09;67.0;;;52.0;;
53939;SDS011;39850;43.324;21.916;2023-04-06T21:40:55;67.0;;;52.0;;
53939;SDS011;39850;43.324;21.916;2023-04-06T21:45:32;67.0;;;52.0;;
53939;SDS011;39850;43.324;21.916;2023-04-06T21:50:10;67.0;;;52.0;;
53939;SDS011;39850;43.324;21.916;2023-04-06T21:54:47;67.0;;;52.0;;
53939;SDS011;39850;43.324;21.916;2023-04-06T21:59:24;67.0;;;52.0;;
53939;SDS011;39850;43.324;21.916;2023-04-06T22:04:01;60.0;;;48.0;;
53939;SDS011;39850;43.324;21.916;2023-04-06T22:08:38;60.0;;;48.0;;
53939;SDS011;39850;43.324;21.916;2023-04-06T22:13:15;60.0;;;48.0;;
53939;SDS011;39850;43.324;21.916;2023-04-06T22:17:52;52.0;;;43.0;;
53939;SDS011;39850;43.324;21.916;2023-04-06T22:22:29;52.0;;;43.0;;
53939;SDS011;39850;43.324;21.916;2023-04-06T22:54:46;52.0;;;46.0;;
53939;SDS011;39850;43.324;21.916;2023-04-06T22:59:23;52.0;;;46.0;;
53939;SDS011;39850;43.324;21.916;2023-04-06T23:04:00;52.0;;;46.0;;
53939;SDS011;39850;43.324;21.916;2023-04-06T23:08:36;60.0;;;52.0;;
53939;SDS011;39850;43.324;21.916;2023-04-06T23:13:13;60.0;;;52.0;;
53939;SDS011;39850;43.324;21.916;2023-04-06T23:17:50;68.0;;;57.0;;
53939;SDS011;39850;43.324;21.916;2023-04-06T23:22:26;68.0;;;57.0;;
53939;SDS011;39850;43.324;21.916;2023-04-06T23:27:03;71.0;;;60.0;;
53939;SDS011;39850;43.324;21.916;2023-04-06T23:31:40;71.0;;;60.0;;
53939;SDS011;39850;43.324;21.916;2023-04-06T23:36:17;74.0;;;62.0;;
53939;SDS011;39850;43.324;21.916;2023-04-06T23:40:54;74.0;;;62.0;;
